Time;durP1;ratioP1;P1;durP2;ratioP2;P2;SDS_P1;SDS_P2;PMS_P1;PMS_P2;Temp;Humidity;BMP_temperature;BMP_pressure;BME280_temperature;BME280_humidity;BME280_pressure;Samples;Min_cycle;Max_cycle;Signal;HPM_P1;HPM_P2
2022/10/18 00:00:08;;;;;;;1.17;1.17;;;20.70;73.00;;;;;;5016716;28;43501;-70
2022/10/18 00:02:37;;;;;;;0.90;0.90;;;20.70;73.00;;;;;;5011698;28;43404;-71
2022/10/18 00:05:06;;;;;;;1.03;1.03;;;20.70;73.00;;;;;;5010934;28;43825;-70
2022/10/18 00:07:34;;;;;;;0.90;0.90;;;20.60;73.40;;;;;;5009660;28;44790;-72
2022/10/18 00:10:02;;;;;;;1.17;1.17;;;20.60;73.50;;;;;;5021307;28;43451;-71
2022/10/18 00:12:31;;;;;;;0.97;0.97;;;20.70;73.20;;;;;;5014706;28;43623;-69
2022/10/18 00:15:01;;;;;;;0.90;0.90;;;20.80;72.90;;;;;;5016154;28;43928;-70
2022/10/18 00:17:29;;;;;;;1.10;1.10;;;20.80;72.90;;;;;;5012777;28;43428;-72
2022/10/18 00:19:57;;;;;;;0.90;0.90;;;20.80;72.80;;;;;;5013605;28;43421;-70
2022/10/18 00:22:25;;;;;;;1.00;1.00;;;20.70;73.00;;;;;;5017725;28;43427;-71
2022/10/18 00:24:53;;;;;;;0.90;0.90;;;20.80;73.00;;;;;;5017814;28;43596;-69
2022/10/18 00:27:21;;;;;;;1.10;1.10;;;20.70;72.90;;;;;;5014690;28;43705;-71
2022/10/18 00:29:52;;;;;;;0.97;0.97;;;20.70;72.90;;;;;;5023641;28;43399;-71
2022/10/18 00:32:21;;;;;;;1.00;1.00;;;20.60;73.00;;;;;;5023851;28;43498;-70
2022/10/18 00:34:49;;;;;;;1.00;1.00;;;20.60;73.50;;;;;;5019187;28;43952;-71
2022/10/18 00:37:17;;;;;;;1.10;1.10;;;20.60;73.50;;;;;;5017510;28;43794;-70
2022/10/18 00:39:45;;;;;;;0.93;0.93;;;20.60;73.40;;;;;;5011259;28;43468;-70
2022/10/18 00:42:15;;;;;;;1.00;1.00;;;20.60;73.30;;;;;;5012285;28;43480;-70
2022/10/18 00:45:09;;;;;;;0.90;0.90;;;20.60;73.30;;;;;;5016488;28;43893;-71
2022/10/18 00:47:39;;;;;;;0.90;0.90;;;20.60;73.90;;;;;;5013483;28;44762;-71
2022/10/18 00:50:07;;;;;;;1.00;1.00;;;20.60;73.70;;;;;;5016327;28;43463;-71
2022/10/18 00:52:36;;;;;;;1.33;1.10;;;20.70;73.30;;;;;;5013216;28;43507;-71
2022/10/18 00:55:05;;;;;;;1.00;1.00;;;20.80;72.70;;;;;;5012168;28;44349;-70
2022/10/18 00:57:33;;;;;;;1.00;1.00;;;21.00;72.30;;;;;;5023311;28;43488;-71
2022/10/18 01:00:01;;;;;;;1.07;1.07;;;21.00;72.10;;;;;;5012282;28;43404;-69
2022/10/18 01:02:29;;;;;;;1.13;1.00;;;21.00;72.20;;;;;;5011741;28;43388;-71
2022/10/18 01:04:59;;;;;;;1.20;1.20;;;20.90;72.20;;;;;;5006981;28;45733;-70
2022/10/18 01:07:35;;;;;;;0.90;0.90;;;20.80;72.50;;;;;;5016334;28;43482;-69
2022/10/18 01:10:08;;;;;;;1.00;1.00;;;20.80;73.10;;;;;;5017402;28;43532;-71
2022/10/18 01:12:42;;;;;;;1.00;1.00;;;20.70;73.00;;;;;;5012485;28;43415;-70
2022/10/18 01:15:12;;;;;;;1.10;1.10;;;20.70;73.00;;;;;;5014455;28;43603;-70
2022/10/18 01:17:59;;;;;;;0.90;0.90;;;20.70;73.00;;;;;;5008765;28;44022;-70
2022/10/18 01:20:43;;;;;;;1.07;1.07;;;20.60;73.10;;;;;;5021078;28;43359;-70
2022/10/18 01:23:14;;;;;;;1.10;1.10;;;20.60;73.60;;;;;;5009278;28;43411;-70
2022/10/18 01:25:46;;;;;;;0.93;0.93;;;20.60;73.60;;;;;;5007305;28;46011;-72
2022/10/18 01:28:24;;;;;;;0.90;0.90;;;20.60;73.30;;;;;;5012841;28;44622;-69
2022/10/18 01:30:54;;;;;;;1.20;1.20;;;20.60;73.40;;;;;;5022060;28;43426;-71
2022/10/18 01:33:34;;;;;;;1.10;1.10;;;20.50;73.80;;;;;;5013451;28;43559;-69
2022/10/18 01:36:04;;;;;;;1.00;1.00;;;20.60;73.90;;;;;;5014295;28;43603;-69
2022/10/18 01:38:32;;;;;;;1.00;1.00;;;20.70;73.60;;;;;;5018813;28;43434;-70
2022/10/18 01:41:00;;;;;;;0.80;0.80;;;20.80;73.00;;;;;;5021204;28;43458;-71
2022/10/18 01:43:28;;;;;;;1.20;1.20;;;21.00;72.50;;;;;;5018681;28;43375;-70
2022/10/18 01:45:57;;;;;;;1.17;1.17;;;21.00;72.10;;;;;;5021924;28;43932;-72
2022/10/18 01:48:25;;;;;;;0.93;0.93;;;21.00;72.00;;;;;;5021990;28;44125;-70
2022/10/18 01:50:53;;;;;;;1.00;1.00;;;20.90;72.10;;;;;;5017923;28;43807;-70
2022/10/18 01:53:27;;;;;;;1.00;1.00;;;20.90;72.40;;;;;;5016466;28;43551;-72
2022/10/18 01:56:12;;;;;;;1.10;1.10;;;20.80;72.90;;;;;;5021156;28;44466;-71
2022/10/18 01:58:42;;;;;;;0.90;0.90;;;20.80;73.00;;;;;;5017240;28;43900;-72
2022/10/18 02:01:12;;;;;;;1.00;1.00;;;20.70;72.90;;;;;;5025365;28;43484;-71
2022/10/18 02:03:42;;;;;;;1.10;1.10;;;20.70;72.90;;;;;;5017555;28;43989;-70
2022/10/18 02:06:13;;;;;;;1.03;1.03;;;20.70;73.10;;;;;;5010568;28;43880;-71
2022/10/18 02:08:42;;;;;;;1.10;1.10;;;20.60;73.70;;;;;;5013512;28;44531;-71
2022/10/18 02:11:11;;;;;;;1.20;1.20;;;20.60;73.50;;;;;;5010065;28;43434;-71
2022/10/18 02:13:40;;;;;;;1.00;1.00;;;20.60;73.40;;;;;;5017854;28;43915;-71
2022/10/18 02:16:12;;;;;;;1.10;1.10;;;20.60;73.30;;;;;;5016305;28;43886;-71
2022/10/18 02:18:41;;;;;;;1.03;1.03;;;20.60;73.40;;;;;;5017566;28;43438;-71
2022/10/18 02:21:10;;;;;;;1.10;1.10;;;20.50;73.80;;;;;;5012196;28;43352;-71
2022/10/18 02:23:38;;;;;;;1.00;1.00;;;20.60;73.70;;;;;;5017870;28;43510;-70
2022/10/18 02:26:06;;;;;;;1.00;1.00;;;20.70;73.30;;;;;;5014816;28;46432;-71
2022/10/18 02:28:34;;;;;;;1.00;1.00;;;20.90;72.70;;;;;;5025913;28;44736;-70
2022/10/18 02:31:06;;;;;;;0.90;0.90;;;21.00;72.30;;;;;;5015805;28;43442;-70
2022/10/18 02:33:38;;;;;;;1.00;1.00;;;21.00;72.30;;;;;;5022922;28;43451;-71
2022/10/18 02:36:09;;;;;;;0.90;0.90;;;20.90;72.20;;;;;;5010547;28;43849;-71
2022/10/18 02:38:37;;;;;;;1.10;1.10;;;20.80;72.30;;;;;;5015645;28;43407;-70
2022/10/18 02:41:05;;;;;;;1.03;1.03;;;20.80;72.60;;;;;;5008992;28;43420;-71
2022/10/18 02:43:34;;;;;;;1.20;1.20;;;20.70;73.10;;;;;;5017924;28;43529;-70
2022/10/18 02:46:02;;;;;;;1.20;1.20;;;20.70;73.90;;;;;;5014677;28;43571;-72
2022/10/18 02:48:30;;;;;;;1.00;1.00;;;20.70;73.10;;;;;;5009967;28;43451;-72
2022/10/18 02:50:59;;;;;;;1.10;1.10;;;20.60;73.00;;;;;;5009149;28;43401;-71
2022/10/18 02:53:27;;;;;;;1.00;1.00;;;20.60;73.50;;;;;;5016504;28;43545;-71
2022/10/18 02:55:55;;;;;;;1.00;1.00;;;20.60;73.60;;;;;;5024720;28;43639;-70
2022/10/18 02:58:23;;;;;;;1.17;1.17;;;20.60;73.50;;;;;;5017817;28;43591;-69
2022/10/18 03:00:51;;;;;;;1.00;1.00;;;20.60;73.30;;;;;;5010250;28;43466;-70
2022/10/18 03:03:19;;;;;;;1.00;1.00;;;20.60;73.40;;;;;;5016353;28;43386;-71
2022/10/18 03:05:49;;;;;;;1.20;1.20;;;20.50;73.70;;;;;;5011719;28;43937;-71
2022/10/18 03:08:18;;;;;;;1.10;1.10;;;20.60;73.90;;;;;;5018264;28;43513;-71
2022/10/18 03:10:46;;;;;;;1.10;1.10;;;20.70;73.50;;;;;;5017553;28;43366;-72
2022/10/18 03:13:14;;;;;;;0.90;0.90;;;20.80;73.00;;;;;;5019169;28;43499;-70
2022/10/18 03:15:42;;;;;;;1.00;1.00;;;21.00;72.40;;;;;;5011768;28;45072;-71
2022/10/18 03:18:10;;;;;;;1.13;1.13;;;21.00;72.00;;;;;;5022390;28;43441;-70
2022/10/18 03:20:38;;;;;;;1.00;1.00;;;21.10;72.00;;;;;;5024849;28;43442;-70
2022/10/18 03:23:06;;;;;;;1.00;1.00;;;21.00;72.00;;;;;;5013368;28;43474;-71
2022/10/18 03:25:35;;;;;;;1.00;1.00;;;20.90;72.20;;;;;;5023484;28;43960;-71
2022/10/18 03:28:03;;;;;;;1.00;1.00;;;20.80;72.60;;;;;;5020277;28;43465;-71
2022/10/18 03:30:31;;;;;;;1.10;1.10;;;20.80;73.00;;;;;;5018513;28;43437;-70
2022/10/18 03:32:59;;;;;;;1.10;1.10;;;20.80;73.10;;;;;;5020843;28;43424;-70
2022/10/18 03:35:27;;;;;;;0.90;0.90;;;20.70;73.00;;;;;;5019764;28;43967;-71
2022/10/18 03:37:54;;;;;;;1.20;1.20;;;20.60;73.00;;;;;;5012578;28;44098;-71
2022/10/18 03:40:22;;;;;;;0.90;0.90;;;20.60;73.40;;;;;;5015794;28;43815;-70
2022/10/18 03:42:52;;;;;;;1.10;1.10;;;20.60;73.60;;;;;;5020237;28;43409;-70
2022/10/18 03:45:19;;;;;;;2.43;1.47;;;20.60;73.50;;;;;;5016503;28;43853;-72
2022/10/18 03:47:47;;;;;;;1.10;1.10;;;20.60;73.40;;;;;;5012743;28;43503;-70
2022/10/18 03:50:15;;;;;;;1.30;1.30;;;20.60;73.40;;;;;;5020050;28;43439;-71
2022/10/18 03:52:43;;;;;;;1.50;1.30;;;20.50;73.60;;;;;;5022663;28;43525;-71
2022/10/18 03:55:11;;;;;;;1.60;1.20;;;20.60;73.90;;;;;;5015428;28;43915;-71
2022/10/18 03:57:39;;;;;;;1.20;1.20;;;20.70;73.60;;;;;;5021206;28;43432;-71
2022/10/18 04:00:10;;;;;;;1.30;1.17;;;20.80;73.00;;;;;;5016194;28;43396;-71
2022/10/18 04:02:41;;;;;;;1.40;1.40;;;21.00;72.50;;;;;;5012802;28;43456;-72
2022/10/18 04:05:09;;;;;;;1.30;1.27;;;21.00;72.10;;;;;;5013319;28;44008;-71
2022/10/18 04:07:37;;;;;;;1.30;1.30;;;21.00;72.00;;;;;;5017061;28;43465;-70
2022/10/18 04:10:06;;;;;;;1.40;1.30;;;21.00;72.20;;;;;;5017648;28;43431;-70
2022/10/18 04:12:34;;;;;;;1.40;1.27;;;20.90;72.40;;;;;;5016793;28;43481;-71
2022/10/18 04:15:02;;;;;;;1.80;1.30;;;20.80;72.70;;;;;;5012241;28;43955;-71
2022/10/18 04:17:31;;;;;;;1.30;1.30;;;20.70;73.00;;;;;;5013804;28;43372;-70
2022/10/18 04:19:59;;;;;;;1.20;1.20;;;20.70;72.90;;;;;;5019935;28;43501;-71
2022/10/18 04:22:27;;;;;;;3.73;1.40;;;20.70;73.00;;;;;;5016091;28;43540;-71
2022/10/18 04:24:55;;;;;;;1.40;1.40;;;20.70;73.00;;;;;;5015989;28;43830;-71
2022/10/18 04:27:23;;;;;;;1.20;1.20;;;20.60;73.10;;;;;;5010503;28;44394;-71
2022/10/18 04:29:51;;;;;;;1.20;1.20;;;20.60;73.70;;;;;;5010623;28;43498;-71
2022/10/18 04:32:19;;;;;;;1.53;1.30;;;20.60;73.70;;;;;;5011496;28;43786;-73
2022/10/18 04:34:48;;;;;;;1.00;1.00;;;20.60;73.50;;;;;;5009466;28;45884;-71
2022/10/18 04:37:17;;;;;;;3.20;1.10;;;20.60;73.50;;;;;;5015977;28;43539;-69
2022/10/18 04:39:47;;;;;;;1.40;1.40;;;20.50;73.50;;;;;;5016587;28;43427;-70
2022/10/18 04:42:20;;;;;;;1.43;1.10;;;20.50;73.90;;;;;;5013941;28;43468;-72
2022/10/18 04:44:48;;;;;;;1.50;1.40;;;20.60;73.80;;;;;;5011878;28;43595;-71
2022/10/18 04:47:16;;;;;;;1.00;1.00;;;20.70;73.30;;;;;;5010592;28;45290;-71
2022/10/18 04:49:44;;;;;;;1.10;1.10;;;20.80;72.90;;;;;;5007938;28;43395;-71
2022/10/18 04:52:13;;;;;;;1.10;1.10;;;20.90;72.90;;;;;;5011969;28;43513;-72
2022/10/18 04:54:41;;;;;;;1.10;1.10;;;20.80;72.80;;;;;;5009328;28;44041;-70
2022/10/18 04:57:09;;;;;;;1.20;1.20;;;20.80;73.00;;;;;;5011534;28;43478;-72
2022/10/18 04:59:37;;;;;;;1.00;1.00;;;20.80;73.00;;;;;;5017668;28;43669;-69
2022/10/18 05:02:05;;;;;;;1.13;1.13;;;20.80;73.00;;;;;;5017632;28;43949;-70
2022/10/18 05:04:33;;;;;;;1.20;1.20;;;20.70;73.00;;;;;;5012695;28;43876;-71
2022/10/18 05:07:01;;;;;;;1.10;1.10;;;20.70;73.10;;;;;;5014090;28;43381;-70
2022/10/18 05:09:30;;;;;;;1.20;1.20;;;20.60;73.50;;;;;;5016105;28;43391;-71
2022/10/18 05:11:58;;;;;;;1.20;1.20;;;20.60;73.50;;;;;;5012901;28;43503;-69
2022/10/18 05:14:26;;;;;;;1.03;1.03;;;20.60;73.50;;;;;;5014838;28;44816;-70
2022/10/18 05:16:54;;;;;;;1.27;1.27;;;20.60;73.40;;;;;;5016446;28;44958;-71
2022/10/18 05:19:22;;;;;;;1.70;1.00;;;20.60;73.60;;;;;;5016252;28;43502;-72
2022/10/18 05:21:50;;;;;;;1.37;1.07;;;20.60;74.00;;;;;;5011309;28;43483;-71
2022/10/18 05:24:18;;;;;;;1.17;1.17;;;20.60;73.80;;;;;;5021311;28;43857;-70
2022/10/18 05:26:52;;;;;;;1.20;1.20;;;20.70;73.40;;;;;;5016699;28;44139;-70
2022/10/18 05:29:20;;;;;;;1.20;1.20;;;20.90;72.90;;;;;;5018207;28;43462;-72
2022/10/18 05:31:48;;;;;;;1.03;1.03;;;21.00;72.50;;;;;;5012239;28;43434;-70
2022/10/18 05:34:16;;;;;;;1.30;1.30;;;21.00;72.20;;;;;;5018926;28;43606;-71
2022/10/18 05:36:44;;;;;;;1.10;1.10;;;21.00;73.00;;;;;;5020496;28;43973;-71
2022/10/18 05:39:12;;;;;;;0.97;0.97;;;20.90;72.40;;;;;;5017190;28;43449;-71
2022/10/18 05:41:39;;;;;;;1.00;1.00;;;20.80;72.60;;;;;;5021905;28;44016;-71
2022/10/18 05:44:09;;;;;;;1.10;1.10;;;20.80;73.20;;;;;;5012444;28;43892;-71
2022/10/18 05:46:37;;;;;;;1.03;1.03;;;20.80;73.20;;;;;;5017262;28;43550;-70
2022/10/18 05:49:05;;;;;;;1.10;1.10;;;20.70;73.10;;;;;;5017210;28;43345;-70
2022/10/18 05:51:33;;;;;;;1.10;1.10;;;20.70;73.30;;;;;;5015074;28;43423;-71
2022/10/18 05:54:01;;;;;;;1.10;1.10;;;20.60;73.20;;;;;;5015871;28;43954;-71
2022/10/18 05:56:29;;;;;;;1.40;1.40;;;20.60;73.70;;;;;;5018669;28;43472;-70
2022/10/18 05:58:57;;;;;;;1.30;1.30;;;20.60;73.70;;;;;;5020357;28;43411;-71
2022/10/18 06:01:26;;;;;;;1.20;1.20;;;20.60;73.60;;;;;;5009499;28;43491;-69
2022/10/18 06:03:54;;;;;;;1.10;1.10;;;20.60;73.50;;;;;;5019215;28;43598;-70
2022/10/18 06:06:22;;;;;;;1.20;1.20;;;20.60;73.60;;;;;;5022146;28;43438;-72
2022/10/18 06:08:50;;;;;;;1.10;1.10;;;20.60;73.90;;;;;;5018620;28;43415;-72
2022/10/18 06:11:19;;;;;;;1.00;1.00;;;20.60;74.10;;;;;;5018650;28;43594;-70
2022/10/18 06:13:47;;;;;;;1.10;1.10;;;20.70;73.70;;;;;;5013041;28;43920;-70
2022/10/18 06:16:16;;;;;;;1.13;1.13;;;20.80;73.20;;;;;;5016774;28;44326;-71
2022/10/18 06:18:47;;;;;;;1.20;1.20;;;20.90;72.60;;;;;;5014957;28;43476;-69
2022/10/18 06:21:15;;;;;;;1.20;1.20;;;21.00;72.30;;;;;;5017679;28;43458;-71
2022/10/18 06:23:43;;;;;;;1.13;1.13;;;21.00;72.20;;;;;;5009678;28;43870;-73
2022/10/18 06:26:11;;;;;;;1.20;1.20;;;21.00;72.30;;;;;;5009863;28;44377;-73
2022/10/18 06:28:39;;;;;;;1.00;1.00;;;20.90;72.50;;;;;;5010680;28;44003;-71
2022/10/18 06:31:07;;;;;;;1.07;1.07;;;20.80;72.80;;;;;;5017703;28;43553;-70
2022/10/18 06:33:35;;;;;;;1.33;1.33;;;20.80;73.20;;;;;;5023528;28;45358;-73
2022/10/18 06:36:05;;;;;;;1.10;1.10;;;20.80;73.20;;;;;;5022355;28;43453;-71
2022/10/18 06:38:34;;;;;;;1.10;1.10;;;20.70;73.10;;;;;;5015882;28;43586;-71
2022/10/18 06:41:02;;;;;;;1.20;1.20;;;20.70;73.20;;;;;;5016564;28;43383;-70
2022/10/18 06:43:30;;;;;;;1.10;1.10;;;20.60;73.30;;;;;;5018647;28;45643;-70
2022/10/18 06:45:58;;;;;;;1.10;1.10;;;20.60;73.70;;;;;;5015219;28;43467;-70
2022/10/18 06:48:25;;;;;;;0.93;0.93;;;20.60;73.70;;;;;;5019139;28;44007;-71
2022/10/18 06:50:55;;;;;;;1.10;1.07;;;20.60;73.50;;;;;;5016401;28;43443;-69
2022/10/18 06:53:24;;;;;;;1.23;1.23;;;20.60;73.50;;;;;;5019543;28;43933;-72
2022/10/18 06:55:52;;;;;;;1.10;1.10;;;20.60;73.70;;;;;;5011089;28;43418;-70
2022/10/18 06:58:20;;;;;;;1.00;1.00;;;20.50;73.90;;;;;;5020816;28;43391;-70
2022/10/18 07:00:48;;;;;;;1.30;1.30;;;20.60;73.80;;;;;;5025472;28;43403;-70
2022/10/18 07:03:16;;;;;;;1.10;1.10;;;20.80;73.40;;;;;;5015629;28;43612;-71
2022/10/18 07:05:44;;;;;;;1.20;1.20;;;20.90;72.80;;;;;;5021612;28;43607;-71
2022/10/18 07:08:12;;;;;;;1.13;1.13;;;21.00;72.90;;;;;;5014220;28;43480;-71
2022/10/18 07:10:41;;;;;;;1.00;1.00;;;21.10;72.20;;;;;;5019961;28;43552;-70
2022/10/18 07:13:09;;;;;;;1.20;1.10;;;21.00;72.10;;;;;;5027280;28;44049;-70
2022/10/18 07:16:01;;;;;;;1.33;1.33;;;21.00;72.40;;;;;;5022377;28;43940;-71
2022/10/18 07:18:29;;;;;;;1.27;1.27;;;20.80;72.60;;;;;;5014392;28;43382;-70
2022/10/18 07:20:57;;;;;;;1.10;1.10;;;20.80;73.10;;;;;;5012929;28;43433;-72
2022/10/18 07:23:25;;;;;;;1.20;1.20;;;20.80;73.90;;;;;;5020964;28;43556;-70
2022/10/18 07:25:54;;;;;;;1.10;1.10;;;20.70;73.10;;;;;;5016277;28;44008;-70
2022/10/18 07:28:22;;;;;;;1.30;1.30;;;20.70;73.10;;;;;;5010574;28;43447;-71
2022/10/18 07:30:50;;;;;;;1.20;1.20;;;20.70;73.50;;;;;;5018520;28;43376;-72
2022/10/18 07:33:19;;;;;;;1.20;1.20;;;20.60;73.60;;;;;;5025045;28;43624;-71
2022/10/18 07:35:47;;;;;;;1.10;1.10;;;20.70;73.60;;;;;;5022782;28;43998;-69
2022/10/18 07:38:15;;;;;;;1.10;1.10;;;20.60;73.40;;;;;;5022371;28;43438;-71
2022/10/18 07:40:43;;;;;;;1.00;1.00;;;20.60;73.50;;;;;;5012915;28;43414;-71
2022/10/18 07:43:12;;;;;;;1.40;1.40;;;20.60;73.90;;;;;;5015773;28;43836;-71
2022/10/18 07:45:40;;;;;;;1.17;1.17;;;20.60;74.00;;;;;;5014417;28;43543;-70
2022/10/18 07:48:08;;;;;;;1.20;1.20;;;20.70;73.50;;;;;;5013719;28;43351;-71
2022/10/18 07:50:36;;;;;;;1.20;1.20;;;20.80;73.00;;;;;;5015096;28;43473;-71
2022/10/18 07:53:04;;;;;;;1.17;1.17;;;21.00;72.40;;;;;;5035102;28;45630;-71
2022/10/18 07:55:32;;;;;;;1.20;1.20;;;21.10;72.20;;;;;;5020248;28;43904;-71
2022/10/18 07:58:00;;;;;;;1.20;1.20;;;21.10;72.30;;;;;;5021195;28;43336;-70
2022/10/18 08:00:29;;;;;;;1.20;1.20;;;21.00;72.30;;;;;;5015390;28;43455;-71
2022/10/18 08:02:57;;;;;;;1.10;1.10;;;20.90;72.40;;;;;;5012999;28;43904;-70
2022/10/18 08:05:25;;;;;;;1.13;1.13;;;20.80;72.90;;;;;;5011342;28;43383;-72
2022/10/18 08:07:53;;;;;;;1.10;1.10;;;20.80;73.20;;;;;;5014059;28;43498;-72
2022/10/18 08:10:22;;;;;;;1.17;1.17;;;20.80;73.30;;;;;;5021640;28;43431;-71
2022/10/18 08:12:50;;;;;;;1.13;1.13;;;20.70;73.10;;;;;;5017222;28;43931;-72
2022/10/18 08:15:20;;;;;;;1.30;1.30;;;20.70;73.20;;;;;;5021189;28;43842;-70
2022/10/18 08:17:49;;;;;;;1.30;1.30;;;20.60;73.30;;;;;;5012854;28;43441;-69
2022/10/18 08:20:17;;;;;;;1.30;1.30;;;20.60;73.70;;;;;;5015247;28;44183;-73
2022/10/18 08:22:57;;;;;;;1.07;1.07;;;20.60;73.70;;;;;;5013927;28;45922;-70
2022/10/18 08:25:27;;;;;;;1.10;1.10;;;20.60;73.50;;;;;;5024377;28;43402;-70
2022/10/18 08:27:55;;;;;;;1.13;1.13;;;20.60;73.50;;;;;;5010068;28;43460;-70
2022/10/18 08:30:23;;;;;;;2.93;1.30;;;20.60;73.70;;;;;;5023510;28;43489;-71
2022/10/18 08:32:52;;;;;;;1.30;1.30;;;20.50;74.00;;;;;;5025392;28;44459;-71
2022/10/18 08:35:20;;;;;;;1.33;1.23;;;20.60;73.80;;;;;;5017998;28;43519;-73
2022/10/18 08:37:48;;;;;;;1.27;1.27;;;20.70;73.30;;;;;;5019060;28;43421;-72
2022/10/18 08:40:16;;;;;;;1.30;1.30;;;20.90;72.80;;;;;;5017152;28;43549;-72
2022/10/18 08:42:58;;;;;;;1.30;1.30;;;21.00;72.30;;;;;;5015944;28;43913;-71
2022/10/18 08:45:27;;;;;;;1.33;1.33;;;21.00;72.20;;;;;;5015674;28;43364;-71
2022/10/18 08:48:16;;;;;;;1.23;1.23;;;21.00;72.30;;;;;;5009371;28;43430;-71
2022/10/18 08:50:44;;;;;;;1.20;1.20;;;20.90;72.40;;;;;;5020180;28;43451;-72
2022/10/18 08:53:15;;;;;;;1.30;1.30;;;20.80;72.80;;;;;;5020671;28;43790;-70
2022/10/18 08:55:44;;;;;;;1.37;1.37;;;20.70;73.20;;;;;;5024656;28;44909;-70
2022/10/18 08:58:17;;;;;;;1.30;1.30;;;20.80;73.30;;;;;;5039816;28;43474;-70
2022/10/18 09:00:49;;;;;;;1.17;1.17;;;20.70;73.20;;;;;;5020918;28;43378;-71
2022/10/18 09:03:26;;;;;;;1.40;1.40;;;20.70;73.20;;;;;;5008570;28;43830;-70
2022/10/18 09:05:55;;;;;;;1.30;1.30;;;20.60;73.30;;;;;;5024351;28;43607;-71
2022/10/18 09:08:45;;;;;;;1.30;1.30;;;20.60;73.80;;;;;;5012628;28;43486;-69
2022/10/18 09:11:21;;;;;;;1.30;1.30;;;20.60;73.80;;;;;;5009086;28;43417;-70
2022/10/18 09:14:12;;;;;;;1.17;1.17;;;20.60;73.60;;;;;;5017611;28;43836;-71
2022/10/18 09:16:44;;;;;;;1.30;1.30;;;20.60;73.60;;;;;;5016952;28;43446;-71
2022/10/18 09:19:19;;;;;;;1.17;1.17;;;20.50;73.80;;;;;;5015782;28;43450;-71
2022/10/18 09:21:50;;;;;;;1.30;1.30;;;20.50;74.10;;;;;;5014293;28;43399;-71
2022/10/18 09:24:22;;;;;;;1.33;1.33;;;20.60;73.90;;;;;;5016049;28;43836;-71
2022/10/18 09:26:50;;;;;;;1.37;1.37;;;20.80;73.50;;;;;;5007368;28;44007;-74
2022/10/18 09:29:30;;;;;;;1.30;1.30;;;20.90;72.90;;;;;;5019802;28;43455;-70
2022/10/18 09:32:02;;;;;;;1.10;1.10;;;21.00;72.50;;;;;;5014357;28;44562;-72
2022/10/18 09:34:35;;;;;;;1.10;1.10;;;21.00;72.50;;;;;;5018566;28;43611;-71
2022/10/18 09:37:03;;;;;;;1.20;1.20;;;20.90;72.50;;;;;;5014875;28;44377;-70
2022/10/18 09:39:32;;;;;;;1.30;1.30;;;20.90;72.70;;;;;;5014113;28;43412;-71
2022/10/18 09:42:01;;;;;;;1.30;1.30;;;20.80;73.20;;;;;;5007797;28;43852;-70
2022/10/18 09:44:31;;;;;;;1.30;1.30;;;20.70;73.30;;;;;;5011906;28;43913;-71
2022/10/18 09:47:01;;;;;;;1.20;1.20;;;20.70;73.30;;;;;;5018236;28;43991;-71
2022/10/18 09:49:30;;;;;;;1.10;1.10;;;20.70;73.30;;;;;;5008635;28;43404;-70
2022/10/18 09:52:00;;;;;;;1.40;1.40;;;20.60;73.30;;;;;;5021793;28;43428;-71
2022/10/18 09:54:31;;;;;;;1.20;1.20;;;20.60;73.70;;;;;;5019440;28;44078;-70
2022/10/18 09:57:02;;;;;;;1.30;1.30;;;20.60;73.80;;;;;;5016705;28;43548;-69
2022/10/18 09:59:34;;;;;;;1.30;1.30;;;20.60;73.80;;;;;;5020361;28;43347;-69
2022/10/18 10:02:02;;;;;;;1.20;1.20;;;20.60;73.70;;;;;;5029303;28;43529;-70
2022/10/18 10:04:30;;;;;;;1.30;1.30;;;20.60;73.60;;;;;;5028530;28;43948;-70
2022/10/18 10:07:01;;;;;;;1.43;1.43;;;20.50;73.80;;;;;;5020544;28;43434;-70
2022/10/18 10:09:30;;;;;;;1.20;1.20;;;20.50;74.10;;;;;;5011616;28;43953;-71
2022/10/18 10:11:58;;;;;;;1.10;1.10;;;20.60;73.90;;;;;;5011030;28;43399;-71
2022/10/18 10:14:27;;;;;;;1.20;1.20;;;20.80;73.50;;;;;;5010714;28;43905;-71
2022/10/18 10:16:56;;;;;;;1.20;1.20;;;20.90;72.80;;;;;;5010627;28;43491;-70
2022/10/18 10:19:28;;;;;;;1.40;1.40;;;21.00;72.40;;;;;;5008629;28;43512;-70
2022/10/18 10:22:00;;;;;;;1.27;1.27;;;21.00;72.20;;;;;;5012936;28;43506;-71
2022/10/18 10:24:39;;;;;;;1.30;1.30;;;21.00;72.40;;;;;;5012266;28;43744;-71
2022/10/18 10:27:13;;;;;;;1.20;1.20;;;20.90;72.50;;;;;;5014921;28;44308;-71
2022/10/18 10:29:50;;;;;;;1.23;1.23;;;20.80;72.80;;;;;;5016979;28;43956;-69
2022/10/18 10:32:20;;;;;;;1.20;1.20;;;20.70;73.20;;;;;;5016442;28;43681;-71
2022/10/18 10:34:49;;;;;;;1.20;1.20;;;20.70;73.30;;;;;;5013639;28;43950;-70
2022/10/18 10:37:26;;;;;;;1.20;1.20;;;20.70;73.30;;;;;;5011919;28;44728;-71
2022/10/18 10:40:15;;;;;;;1.10;1.10;;;20.60;73.30;;;;;;5020786;28;43423;-71
2022/10/18 10:43:04;;;;;;;1.20;1.20;;;20.60;73.70;;;;;;5021917;28;43406;-70
2022/10/18 10:46:01;;;;;;;1.30;1.30;;;20.60;73.80;;;;;;5021272;28;45112;-71
2022/10/18 10:48:32;;;;;;;1.30;1.30;;;20.60;73.80;;;;;;5016396;28;43547;-70
2022/10/18 10:51:02;;;;;;;1.10;1.10;;;20.60;73.60;;;;;;5024088;28;43321;-71
2022/10/18 10:53:59;;;;;;;1.23;1.23;;;20.50;73.60;;;;;;5019774;28;43476;-72
2022/10/18 10:56:28;;;;;;;1.10;1.10;;;20.50;74.10;;;;;;5014011;28;43987;-70
2022/10/18 10:58:58;;;;;;;1.10;1.10;;;20.60;74.00;;;;;;5014416;28;43400;-71
2022/10/18 11:01:28;;;;;;;1.20;1.20;;;20.70;73.70;;;;;;5017775;28;43409;-71
2022/10/18 11:03:57;;;;;;;1.30;1.30;;;20.80;73.00;;;;;;5014415;28;43351;-71
2022/10/18 11:06:42;;;;;;;1.30;1.30;;;20.90;72.60;;;;;;5021522;28;43966;-70
2022/10/18 11:09:19;;;;;;;1.20;1.20;;;21.00;72.40;;;;;;5019026;28;43532;-71
2022/10/18 11:11:53;;;;;;;0.97;0.97;;;20.90;72.40;;;;;;5023964;28;43400;-69
2022/10/18 11:14:22;;;;;;;1.30;1.30;;;20.80;72.50;;;;;;5017974;28;43466;-70
2022/10/18 11:16:56;;;;;;;1.10;1.10;;;20.80;72.90;;;;;;5017404;28;43845;-72
2022/10/18 11:19:32;;;;;;;1.13;1.13;;;20.70;73.40;;;;;;5021809;28;43437;-69
2022/10/18 11:22:00;;;;;;;1.00;1.00;;;20.70;73.40;;;;;;5015831;28;43904;-71
2022/10/18 11:24:29;;;;;;;1.40;1.40;;;20.60;73.30;;;;;;5010206;28;43996;-70
2022/10/18 11:26:58;;;;;;;1.10;1.10;;;20.60;73.30;;;;;;5020451;28;43678;-70
2022/10/18 11:29:35;;;;;;;1.10;1.10;;;20.60;73.60;;;;;;5013187;28;43462;-71
2022/10/18 11:32:09;;;;;;;1.30;1.30;;;20.50;74.00;;;;;;5016771;28;43415;-71
2022/10/18 11:34:48;;;;;;;1.10;1.10;;;20.60;73.80;;;;;;5017041;28;43360;-71
2022/10/18 11:37:25;;;;;;;1.00;1.00;;;20.80;73.40;;;;;;5024533;28;44150;-71
2022/10/18 11:40:03;;;;;;;1.20;1.20;;;20.90;73.00;;;;;;5017162;28;43479;-70
2022/10/18 11:42:34;;;;;;;1.13;1.13;;;20.80;72.90;;;;;;5011276;28;43521;-71
2022/10/18 11:45:11;;;;;;;1.20;1.20;;;20.80;73.20;;;;;;5020910;28;43450;-73
2022/10/18 11:47:43;;;;;;;1.00;1.00;;;20.80;73.20;;;;;;5013778;28;43865;-70
2022/10/18 11:50:16;;;;;;;1.03;1.03;;;20.80;73.20;;;;;;5019508;28;43475;-71
2022/10/18 11:52:48;;;;;;;1.10;1.10;;;20.70;73.10;;;;;;5014759;28;44049;-71
2022/10/18 11:55:31;;;;;;;1.10;1.10;;;20.70;73.20;;;;;;5013904;28;43421;-70
2022/10/18 11:58:03;;;;;;;1.20;1.20;;;20.60;73.50;;;;;;5013739;28;44310;-70
2022/10/18 12:00:41;;;;;;;1.10;1.10;;;20.60;73.70;;;;;;5019041;28;43432;-70
2022/10/18 12:03:24;;;;;;;1.00;1.00;;;20.60;73.70;;;;;;5020550;28;43399;-70
2022/10/18 12:05:52;;;;;;;1.10;1.10;;;20.60;73.70;;;;;;5013778;28;43425;-70
2022/10/18 12:08:23;;;;;;;1.10;1.10;;;20.60;73.70;;;;;;5011280;28;45347;-71
2022/10/18 12:10:53;;;;;;;1.07;1.07;;;20.50;73.80;;;;;;5011078;28;43445;-72
2022/10/18 12:13:38;;;;;;;1.00;1.00;;;20.50;74.10;;;;;;5023042;28;43396;-71
2022/10/18 12:16:07;;;;;;;1.20;1.20;;;20.60;73.80;;;;;;5013016;28;43383;-71
2022/10/18 12:18:35;;;;;;;1.03;1.03;;;20.80;73.40;;;;;;5012202;28;44517;-70
2022/10/18 12:21:04;;;;;;;1.00;1.00;;;20.90;72.70;;;;;;5009114;28;43767;-71
2022/10/18 12:23:38;;;;;;;1.00;1.00;;;21.00;72.70;;;;;;5015700;28;43451;-71
2022/10/18 12:26:07;;;;;;;1.00;1.00;;;21.00;72.40;;;;;;5021373;28;43394;-70
2022/10/18 12:28:41;;;;;;;0.90;0.90;;;20.90;72.60;;;;;;5025886;28;43583;-70
2022/10/18 12:31:14;;;;;;;1.00;1.00;;;20.80;72.80;;;;;;5019626;28;44315;-71
2022/10/18 12:33:44;;;;;;;1.00;1.00;;;20.70;73.30;;;;;;5011559;28;43359;-71
2022/10/18 12:36:18;;;;;;;1.13;1.13;;;20.70;73.30;;;;;;5007963;28;43596;-70
2022/10/18 12:38:47;;;;;;;1.10;1.10;;;20.70;73.40;;;;;;5018208;28;43913;-73
2022/10/18 12:41:19;;;;;;;1.10;1.10;;;20.60;73.30;;;;;;5014519;28;43998;-69
2022/10/18 12:43:51;;;;;;;1.10;1.10;;;20.60;73.50;;;;;;5020622;28;43454;-70
2022/10/18 12:46:19;;;;;;;1.07;1.07;;;20.60;74.00;;;;;;5013045;28;43980;-71
2022/10/18 12:48:50;;;;;;;1.20;1.20;;;20.50;73.80;;;;;;5013611;28;43902;-71
2022/10/18 12:51:19;;;;;;;1.00;1.00;;;20.60;73.90;;;;;;5010103;28;44944;-71
2022/10/18 12:53:47;;;;;;;1.30;1.30;;;20.50;73.80;;;;;;5019392;28;43375;-72
2022/10/18 12:56:36;;;;;;;2.10;1.80;;;20.50;73.80;;;;;;5016668;28;43964;-70
2022/10/18 12:59:38;;;;;;;5.00;2.10;;;20.50;74.30;;;;;;5024536;28;44026;-72
2022/10/18 13:02:18;;;;;;;3.17;2.20;;;20.60;74.00;;;;;;5019155;28;45331;-71
2022/10/18 13:04:47;;;;;;;4.17;2.20;;;20.80;73.50;;;;;;5010287;28;43389;-71